Time;durP1;ratioP1;P1;durP2;ratioP2;P2;SDS_P1;SDS_P2;PMS_P1;PMS_P2;Temp;Humidity;BMP_temperature;BMP_pressure;BME280_temperature;BME280_humidity;BME280_pressure;Samples;Min_cycle;Max_cycle;Signal;HPM_P1;HPM_P2
2023/03/02 00:01:07;;;;;;;35.65;17.27;;;1.90;99.90;;;;;;5016922;28;21260;-58
2023/03/02 00:03:36;;;;;;;38.25;18.30;;;1.80;99.90;;;;;;5000497;28;20022;-59
2023/03/02 00:06:02;;;;;;;42.55;19.38;;;1.80;99.90;;;;;;5009327;28;20482;-59
2023/03/02 00:08:28;;;;;;;36.13;18.08;;;1.80;99.90;;;;;;5008062;28;20593;-59
2023/03/02 00:10:55;;;;;;;33.30;18.60;;;1.80;99.90;;;;;;5001213;28;20022;-59
2023/03/02 00:13:21;;;;;;;32.38;18.30;;;1.80;99.90;;;;;;5019303;28;20033;-59
2023/03/02 00:15:47;;;;;;;32.50;17.15;;;1.80;99.90;;;;;;5000009;28;20735;-62
2023/03/02 00:18:12;;;;;;;38.50;20.27;;;1.90;99.90;;;;;;5010610;28;20117;-59
2023/03/02 00:20:38;;;;;;;34.83;18.00;;;1.90;99.90;;;;;;5007946;28;20105;-59
2023/03/02 00:23:03;;;;;;;35.30;18.95;;;1.90;99.90;;;;;;5003346;28;20014;-58
2023/03/02 00:25:29;;;;;;;59.08;25.23;;;1.80;99.90;;;;;;5013510;28;20116;-60
2023/03/02 00:27:55;;;;;;;53.45;22.35;;;1.80;99.90;;;;;;4998389;28;20533;-59
2023/03/02 00:30:21;;;;;;;43.80;22.38;;;1.70;99.90;;;;;;5011364;28;20030;-58
2023/03/02 00:32:47;;;;;;;39.53;20.60;;;1.70;99.90;;;;;;5005618;28;20110;-59
2023/03/02 00:35:13;;;;;;;43.05;19.40;;;1.60;99.90;;;;;;5002350;28;20188;-59
2023/03/02 00:37:38;;;;;;;40.35;19.63;;;1.70;99.90;;;;;;5014253;28;20037;-59
2023/03/02 00:40:08;;;;;;;35.08;19.00;;;1.70;99.90;;;;;;4995601;28;20018;-58
2023/03/02 00:42:34;;;;;;;37.67;19.80;;;1.70;99.90;;;;;;5015271;28;20017;-60
2023/03/02 00:45:01;;;;;;;33.13;18.25;;;1.70;99.90;;;;;;5006580;28;20022;-58
2023/03/02 00:47:31;;;;;;;34.45;19.02;;;1.70;99.90;;;;;;5004955;28;20517;-59
2023/03/02 00:49:57;;;;;;;46.67;22.40;;;1.80;99.90;;;;;;5013457;28;20021;-59
2023/03/02 00:52:22;;;;;;;43.00;20.20;;;1.70;99.90;;;;;;4996534;28;20041;-59
2023/03/02 00:54:48;;;;;;;47.42;23.27;;;1.70;99.90;;;;;;5017845;28;20036;-59
2023/03/02 00:57:14;;;;;;;41.40;22.95;;;1.60;99.90;;;;;;5001007;28;20557;-59
2023/03/02 00:59:39;;;;;;;45.92;21.27;;;1.50;99.90;;;;;;5005495;28;20053;-59
2023/03/02 01:02:06;;;;;;;46.78;23.15;;;1.50;99.90;;;;;;5011419;28;20100;-58
2023/03/02 01:04:37;;;;;;;37.60;19.25;;;1.40;99.90;;;;;;4996878;28;20181;-58
2023/03/02 01:07:06;;;;;;;37.17;18.45;;;1.40;99.90;;;;;;5015540;28;20118;-57
2023/03/02 01:09:32;;;;;;;35.35;19.88;;;1.30;99.90;;;;;;4999227;28;20031;-59
2023/03/02 01:11:58;;;;;;;44.25;22.65;;;1.30;99.90;;;;;;5005366;28;20040;-59
2023/03/02 01:14:24;;;;;;;38.60;20.08;;;1.20;99.90;;;;;;5007902;28;20037;-57
2023/03/02 01:16:50;;;;;;;47.42;23.23;;;1.10;99.90;;;;;;4996531;28;20030;-59
2023/03/02 01:19:16;;;;;;;41.17;21.70;;;1.20;99.90;;;;;;5013313;28;20037;-59
2023/03/02 01:21:42;;;;;;;37.97;19.60;;;1.20;99.90;;;;;;4996447;28;20388;-58
2023/03/02 01:24:09;;;;;;;45.88;22.23;;;1.20;99.90;;;;;;5014092;28;20037;-59
2023/03/02 01:26:35;;;;;;;43.15;19.23;;;1.20;99.90;;;;;;5003434;28;20034;-57
2023/03/02 01:29:00;;;;;;;49.45;21.40;;;1.20;99.90;;;;;;4998981;28;20101;-58
2023/03/02 01:31:27;;;;;;;33.13;18.60;;;1.20;99.90;;;;;;5013293;28;20382;-60
2023/03/02 01:33:53;;;;;;;35.13;18.23;;;1.20;99.90;;;;;;4996411;28;20030;-59
2023/03/02 01:36:19;;;;;;;33.42;18.30;;;1.30;99.90;;;;;;5010021;28;20025;-61
2023/03/02 01:38:45;;;;;;;36.17;17.75;;;1.30;99.90;;;;;;5003679;28;20121;-59
2023/03/02 01:41:11;;;;;;;35.38;18.85;;;1.40;99.90;;;;;;5003615;28;20432;-58
2023/03/02 01:43:37;;;;;;;35.97;18.50;;;1.50;99.90;;;;;;5009981;28;20014;-58
2023/03/02 01:46:24;;;;;;;29.35;16.92;;;1.50;99.90;;;;;;4993327;28;20101;-59
2023/03/02 01:49:11;;;;;;;33.50;17.08;;;1.50;99.90;;;;;;4994066;28;20050;-59
2023/03/02 01:51:46;;;;;;;32.50;17.40;;;1.60;99.90;;;;;;5013358;28;20036;-59
2023/03/02 01:54:16;;;;;;;34.05;16.90;;;1.70;99.90;;;;;;4997761;28;20517;-59
2023/03/02 01:56:43;;;;;;;29.02;16.40;;;1.70;99.90;;;;;;5006462;28;20088;-58
2023/03/02 01:59:13;;;;;;;35.08;18.38;;;1.70;99.90;;;;;;5007143;28;20080;-59
2023/03/02 02:01:44;;;;;;;31.15;17.30;;;1.70;99.90;;;;;;4997723;28;20084;-60
2023/03/02 02:04:10;;;;;;;26.38;15.07;;;1.80;99.90;;;;;;5015329;28;20022;-61
2023/03/02 02:06:46;;;;;;;24.10;15.38;;;2.00;99.90;;;;;;4994865;28;20395;-60
2023/03/02 02:09:15;;;;;;;27.83;16.33;;;2.10;99.90;;;;;;5007199;28;20479;-58
2023/03/02 02:11:44;;;;;;;28.00;14.65;;;2.10;99.90;;;;;;5002578;28;20049;-58
2023/03/02 02:14:11;;;;;;;30.60;15.77;;;2.10;99.90;;;;;;5001900;28;20030;-59
2023/03/02 02:16:37;;;;;;;31.77;17.73;;;2.20;99.90;;;;;;5011387;28;20025;-58
2023/03/02 02:19:10;;;;;;;25.23;14.55;;;2.20;99.90;;;;;;4997488;28;20021;-58
2023/03/02 02:21:35;;;;;;;30.80;16.40;;;2.10;99.90;;;;;;5011842;28;20490;-59
2023/03/02 02:24:25;;;;;;;37.42;17.17;;;2.10;99.90;;;;;;5003464;28;20081;-59
2023/03/02 02:26:54;;;;;;;30.95;15.48;;;2.00;99.90;;;;;;5007715;28;20060;-58
2023/03/02 02:29:34;;;;;;;39.15;16.80;;;2.00;99.90;;;;;;5005655;28;20585;-59
2023/03/02 02:32:10;;;;;;;26.77;14.98;;;2.00;99.90;;;;;;5001292;28;20099;-60
2023/03/02 02:34:59;;;;;;;27.75;16.75;;;2.00;99.90;;;;;;5010656;28;20733;-59
2023/03/02 02:37:34;;;;;;;42.70;20.77;;;2.10;99.90;;;;;;4994492;28;20022;-59
2023/03/02 02:40:06;;;;;;;30.33;15.40;;;2.10;99.90;;;;;;5012614;28;20029;-59
2023/03/02 02:42:42;;;;;;;30.52;16.40;;;2.10;99.90;;;;;;4993822;28;20018;-59
2023/03/02 02:45:22;;;;;;;42.55;20.17;;;2.00;99.90;;;;;;5008006;28;20030;-58
2023/03/02 02:47:49;;;;;;;37.38;20.15;;;2.10;99.90;;;;;;5006844;28;20057;-60
2023/03/02 02:50:22;;;;;;;36.13;20.70;;;2.10;99.90;;;;;;5002897;28;20033;-57
2023/03/02 02:52:54;;;;;;;32.00;18.30;;;2.10;99.90;;;;;;5008087;28;20030;-59
2023/03/02 02:55:22;;;;;;;28.92;17.13;;;2.00;99.90;;;;;;4995385;28;20079;-59
2023/03/02 02:57:52;;;;;;;28.95;17.13;;;1.90;99.90;;;;;;5013501;28;20017;-59
2023/03/02 03:00:20;;;;;;;29.95;17.20;;;1.90;99.90;;;;;;4999258;28;20022;-58
2023/03/02 03:02:55;;;;;;;34.25;19.35;;;1.90;99.90;;;;;;5007010;28;20029;-59
2023/03/02 03:05:21;;;;;;;36.55;16.60;;;1.90;99.90;;;;;;5006148;28;20026;-58
2023/03/02 03:07:46;;;;;;;31.90;17.73;;;1.90;99.90;;;;;;5000396;28;20032;-59
2023/03/02 03:10:25;;;;;;;26.92;16.75;;;1.90;99.90;;;;;;5017761;28;20029;-58
2023/03/02 03:12:51;;;;;;;28.77;16.88;;;1.90;99.90;;;;;;5000690;28;20046;-59
2023/03/02 03:15:17;;;;;;;28.90;17.35;;;1.90;99.90;;;;;;5000928;28;20038;-57
2023/03/02 03:17:56;;;;;;;26.67;15.10;;;1.80;99.90;;;;;;5013845;28;20045;-59
2023/03/02 03:20:24;;;;;;;34.25;17.35;;;1.70;99.90;;;;;;5009525;28;20011;-60
2023/03/02 03:22:52;;;;;;;30.80;16.45;;;1.60;99.90;;;;;;5002773;28;20029;-59
2023/03/02 03:25:18;;;;;;;28.15;15.95;;;1.50;99.90;;;;;;5018351;28;20410;-58
2023/03/02 03:27:44;;;;;;;29.80;16.13;;;1.40;99.90;;;;;;5001054;28;20045;-60
2023/03/02 03:30:13;;;;;;;30.63;16.42;;;1.30;99.90;;;;;;5012071;28;20033;-58
2023/03/02 03:32:39;;;;;;;27.55;16.45;;;1.30;99.90;;;;;;5006230;28;20081;-58
2023/03/02 03:35:07;;;;;;;32.17;17.17;;;1.20;99.90;;;;;;5003043;28;20026;-59
2023/03/02 03:37:34;;;;;;;30.67;17.15;;;1.10;99.90;;;;;;5015807;28;20040;-59
2023/03/02 03:39:59;;;;;;;28.55;18.23;;;1.00;99.90;;;;;;5000633;28;20109;-59
2023/03/02 03:42:25;;;;;;;30.40;17.17;;;0.90;99.90;;;;;;5015029;28;20113;-58
2023/03/02 03:44:51;;;;;;;33.33;18.60;;;0.80;99.90;;;;;;5004313;28;20068;-59
2023/03/02 03:47:17;;;;;;;31.73;17.23;;;0.80;99.90;;;;;;5009156;28;20033;-59
2023/03/02 03:49:42;;;;;;;32.53;18.33;;;0.70;99.90;;;;;;5015232;28;20016;-58
2023/03/02 03:52:08;;;;;;;36.92;17.92;;;0.70;99.90;;;;;;4999517;28;20098;-59
2023/03/02 03:54:34;;;;;;;34.08;18.38;;;0.70;99.90;;;;;;5011935;28;20057;-58
2023/03/02 03:56:59;;;;;;;30.63;17.75;;;0.80;99.90;;;;;;5003769;28;20569;-58
2023/03/02 03:59:26;;;;;;;48.95;22.65;;;0.90;99.90;;;;;;5005773;28;20443;-59
2023/03/02 04:01:59;;;;;;;30.15;17.67;;;0.90;99.90;;;;;;5013831;28;20026;-59
2023/03/02 04:04:28;;;;;;;41.28;20.95;;;1.00;99.90;;;;;;4999820;28;20084;-59
2023/03/02 04:06:54;;;;;;;37.35;19.13;;;1.10;99.90;;;;;;5017383;28;20038;-59
2023/03/02 04:09:21;;;;;;;37.13;19.48;;;1.30;99.90;;;;;;5000876;28;20030;-59
2023/03/02 04:11:49;;;;;;;46.47;23.10;;;1.40;99.90;;;;;;5004913;28;20033;-59
2023/03/02 04:14:15;;;;;;;34.55;19.90;;;1.50;99.90;;;;;;5007123;28;20044;-58
2023/03/02 04:16:42;;;;;;;40.13;20.95;;;1.50;99.90;;;;;;4999980;28;20052;-58
2023/03/02 04:19:08;;;;;;;37.75;19.58;;;1.50;99.90;;;;;;5015949;28;20014;-59
2023/03/02 04:21:43;;;;;;;40.58;20.52;;;1.60;99.90;;;;;;4998084;28;20042;-58
2023/03/02 04:24:09;;;;;;;36.53;19.25;;;1.60;99.90;;;;;;5011726;28;20093;-60
2023/03/02 04:26:37;;;;;;;33.70;17.92;;;1.60;99.90;;;;;;5005980;28;20026;-59
2023/03/02 04:29:03;;;;;;;33.47;18.20;;;1.70;99.90;;;;;;5003648;28;20048;-58
2023/03/02 04:31:30;;;;;;;34.20;17.90;;;1.80;99.90;;;;;;5016054;28;20044;-59
2023/03/02 04:33:56;;;;;;;33.17;17.75;;;1.80;99.90;;;;;;5000402;28;20030;-58
2023/03/02 04:36:21;;;;;;;55.83;24.73;;;1.80;99.90;;;;;;4981387;28;20114;-59
2023/03/02 04:38:48;;;;;;;32.42;18.73;;;1.80;99.90;;;;;;5007550;28;20065;-58
2023/03/02 04:41:14;;;;;;;30.70;17.42;;;1.80;99.90;;;;;;5011961;28;20063;-59
2023/03/02 04:43:39;;;;;;;35.55;19.58;;;1.80;99.90;;;;;;4997849;28;20411;-59
2023/03/02 04:46:05;;;;;;;39.15;20.67;;;1.80;99.90;;;;;;5017229;28;20029;-59
2023/03/02 04:48:31;;;;;;;30.95;18.05;;;1.90;99.90;;;;;;4998001;28;20070;-60
2023/03/02 04:50:56;;;;;;;38.50;17.58;;;1.90;99.90;;;;;;5010050;28;20743;-59
2023/03/02 04:53:22;;;;;;;36.53;19.35;;;1.90;99.90;;;;;;5011051;28;20037;-59
2023/03/02 04:55:48;;;;;;;36.08;18.60;;;1.90;99.90;;;;;;4999622;28;20045;-58
2023/03/02 04:58:14;;;;;;;29.98;16.67;;;1.90;99.90;;;;;;5016074;28;20378;-60
2023/03/02 05:00:40;;;;;;;35.22;15.23;;;1.90;99.90;;;;;;4997583;28;20033;-59
2023/03/02 05:03:06;;;;;;;30.70;17.00;;;1.90;99.90;;;;;;5011079;28;20446;-58
2023/03/02 05:05:32;;;;;;;34.78;16.48;;;1.90;99.90;;;;;;5007079;28;20053;-57
2023/03/02 05:07:58;;;;;;;37.78;18.23;;;1.90;99.90;;;;;;4999520;28;20057;-57
2023/03/02 05:10:25;;;;;;;29.67;17.23;;;1.80;99.90;;;;;;5015452;28;20036;-58
2023/03/02 05:13:01;;;;;;;31.17;16.45;;;1.80;99.90;;;;;;5013791;28;22346;-58
2023/03/02 05:15:35;;;;;;;28.20;17.45;;;1.70;99.90;;;;;;5016369;28;20111;-59
2023/03/02 05:18:03;;;;;;;28.45;16.50;;;1.70;99.90;;;;;;5018838;28;20426;-59
2023/03/02 05:20:30;;;;;;;34.40;17.27;;;1.70;99.90;;;;;;5012273;28;20402;-59
2023/03/02 05:22:58;;;;;;;30.38;16.35;;;1.70;99.90;;;;;;5017172;28;20033;-59
2023/03/02 05:25:24;;;;;;;30.33;17.17;;;1.70;99.90;;;;;;5018224;28;20025;-57
2023/03/02 05:27:51;;;;;;;30.02;17.38;;;1.70;99.90;;;;;;4993485;28;20056;-58
2023/03/02 05:30:18;;;;;;;31.55;17.55;;;1.70;99.90;;;;;;5009036;28;20034;-58
2023/03/02 05:32:43;;;;;;;29.85;17.15;;;1.60;99.90;;;;;;5008791;28;20027;-58
2023/03/02 05:35:09;;;;;;;30.20;16.25;;;1.50;99.90;;;;;;4998760;28;20029;-58
2023/03/02 05:37:35;;;;;;;33.75;17.70;;;1.50;99.90;;;;;;5013132;28;20018;-58
2023/03/02 05:40:00;;;;;;;31.02;18.13;;;1.40;99.90;;;;;;4992991;28;20018;-59
2023/03/02 05:42:26;;;;;;;31.83;18.42;;;1.40;99.90;;;;;;5012657;28;20087;-58
2023/03/02 05:44:51;;;;;;;35.15;17.33;;;1.30;99.90;;;;;;5003333;28;20034;-57
2023/03/02 05:47:17;;;;;;;30.52;17.45;;;1.40;99.90;;;;;;5003585;28;20428;-60
2023/03/02 05:49:43;;;;;;;33.58;17.58;;;1.40;99.90;;;;;;5015523;28;20029;-58
2023/03/02 05:52:08;;;;;;;37.38;19.15;;;1.40;99.90;;;;;;4996207;28;20098;-58
2023/03/02 05:54:34;;;;;;;31.70;17.63;;;1.40;99.90;;;;;;5016361;28;20030;-59
2023/03/02 05:56:59;;;;;;;33.33;17.23;;;1.50;99.90;;;;;;5002309;28;20027;-59
2023/03/02 05:59:25;;;;;;;33.08;16.98;;;1.50;99.90;;;;;;5003416;28;20387;-58
2023/03/02 06:01:57;;;;;;;34.42;17.52;;;1.50;99.90;;;;;;5010142;28;20458;-57
2023/03/02 06:04:24;;;;;;;32.38;17.05;;;1.50;99.90;;;;;;4996406;28;20034;-59
2023/03/02 06:06:49;;;;;;;32.70;17.08;;;1.50;99.90;;;;;;4994061;28;20030;-57
2023/03/02 06:09:15;;;;;;;31.15;17.30;;;1.60;99.90;;;;;;5009448;28;20117;-57
2023/03/02 06:11:41;;;;;;;27.83;16.80;;;1.50;99.90;;;;;;5003370;28;20056;-58
2023/03/02 06:14:07;;;;;;;31.38;16.42;;;1.60;99.90;;;;;;5004527;28;20029;-58
2023/03/02 06:16:32;;;;;;;28.50;17.05;;;1.60;99.90;;;;;;5015120;28;20029;-58
2023/03/02 06:18:58;;;;;;;27.67;15.18;;;1.70;99.90;;;;;;4994866;28;20037;-58
2023/03/02 06:21:24;;;;;;;30.02;16.05;;;1.70;99.90;;;;;;5011991;28;20103;-59
2023/03/02 06:23:49;;;;;;;29.27;15.80;;;1.80;99.90;;;;;;5003091;28;20034;-58
2023/03/02 06:26:16;;;;;;;28.65;16.17;;;1.80;99.90;;;;;;5000185;28;20494;-57
2023/03/02 06:28:41;;;;;;;29.05;16.90;;;1.90;99.90;;;;;;5013197;28;20030;-58
2023/03/02 06:31:07;;;;;;;22.77;14.70;;;2.00;99.90;;;;;;4995232;28;20018;-58
2023/03/02 06:33:33;;;;;;;32.50;16.15;;;2.00;99.60;;;;;;5011802;28;20038;-59
2023/03/02 06:35:58;;;;;;;26.67;15.60;;;2.10;99.30;;;;;;5002391;28;20748;-57
2023/03/02 06:38:24;;;;;;;24.88;14.80;;;2.10;98.80;;;;;;5003530;28;20041;-57
2023/03/02 06:40:50;;;;;;;35.85;17.50;;;2.10;99.20;;;;;;5013048;28;20023;-58
2023/03/02 06:43:16;;;;;;;30.17;16.60;;;2.20;98.70;;;;;;4999173;28;20022;-58
2023/03/02 06:45:42;;;;;;;32.75;16.95;;;2.30;98.10;;;;;;5014791;28;20041;-58
2023/03/02 06:48:07;;;;;;;27.85;15.73;;;2.40;97.80;;;;;;5006542;28;20026;-59
2023/03/02 06:50:33;;;;;;;25.92;16.38;;;2.40;98.00;;;;;;5005604;28;20038;-59
2023/03/02 06:52:59;;;;;;;29.80;16.17;;;2.40;98.10;;;;;;5012067;28;20443;-58
2023/03/02 06:55:25;;;;;;;30.83;15.23;;;2.50;97.50;;;;;;4997134;28;20022;-59
2023/03/02 06:57:51;;;;;;;26.75;16.52;;;2.50;97.40;;;;;;5020292;28;20013;-60
2023/03/02 07:00:23;;;;;;;29.52;16.02;;;2.50;97.40;;;;;;5001774;28;20034;-59
2023/03/02 07:02:54;;;;;;;28.75;16.75;;;2.60;97.30;;;;;;5010047;28;20018;-57
2023/03/02 07:05:21;;;;;;;;;;;2.60;96.60;;;;;;5013280;28;20663;-58
2023/03/02 07:07:46;;;;;;;37.58;17.88;;;2.60;97.00;;;;;;5001839;28;20316;-58
2023/03/02 07:10:12;;;;;;;35.22;18.60;;;2.70;96.40;;;;;;5017827;28;20030;-58
2023/03/02 07:12:39;;;;;;;33.03;17.42;;;2.70;96.40;;;;;;4998459;28;20026;-58
2023/03/02 07:15:09;;;;;;;29.17;16.70;;;2.80;96.20;;;;;;5010482;28;20487;-58
2023/03/02 07:17:36;;;;;;;30.90;16.45;;;2.80;96.00;;;;;;5007882;28;20117;-58
2023/03/02 07:20:05;;;;;;;27.00;15.85;;;2.90;96.50;;;;;;5002657;28;20025;-59
2023/03/02 07:22:32;;;;;;;33.95;16.42;;;2.90;95.80;;;;;;5013989;28;20018;-59
2023/03/02 07:24:57;;;;;;;28.48;15.30;;;3.00;95.90;;;;;;4999116;28;20475;-58
2023/03/02 07:27:23;;;;;;;31.30;17.05;;;3.10;95.70;;;;;;5014066;28;20050;-58
2023/03/02 07:29:49;;;;;;;25.77;15.57;;;3.10;95.40;;;;;;5005646;28;20018;-59
2023/03/02 07:32:14;;;;;;;24.95;16.00;;;3.20;95.70;;;;;;5003767;28;20639;-58
2023/03/02 07:34:40;;;;;;;23.58;16.58;;;3.20;95.20;;;;;;5016016;28;20049;-59
2023/03/02 07:37:06;;;;;;;28.00;15.45;;;3.30;95.40;;;;;;4998597;28;20630;-58
2023/03/02 07:39:31;;;;;;;30.25;16.10;;;3.30;95.60;;;;;;5014506;28;20033;-59
2023/03/02 07:42:03;;;;;;;29.75;15.65;;;3.40;95.20;;;;;;5004261;28;20018;-60
2023/03/02 07:44:29;;;;;;;25.80;15.02;;;3.40;95.00;;;;;;5005176;28;20026;-59
2023/03/02 07:46:54;;;;;;;28.25;16.55;;;3.50;95.10;;;;;;5012973;28;20100;-60
2023/03/02 07:49:20;;;;;;;27.20;15.98;;;3.50;94.60;;;;;;4996586;28;20102;-58
2023/03/02 07:51:46;;;;;;;24.38;14.75;;;3.70;94.70;;;;;;5014985;28;20029;-58
2023/03/02 07:54:11;;;;;;;20.00;15.10;;;3.70;94.10;;;;;;5002645;28;20494;-57
2023/03/02 07:56:37;;;;;;;26.48;15.55;;;3.80;93.40;;;;;;5007258;28;20397;-59
2023/03/02 07:59:03;;;;;;;23.77;14.98;;;3.90;93.50;;;;;;5010790;28;20034;-59
2023/03/02 08:01:28;;;;;;;33.47;13.90;;;4.00;93.30;;;;;;4995744;28;20026;-58
2023/03/02 08:03:54;;;;;;;23.40;14.95;;;4.10;92.50;;;;;;5016998;28;20079;-58
2023/03/02 08:06:19;;;;;;;20.92;12.52;;;4.20;92.30;;;;;;5000509;28;20053;-58
2023/03/02 08:08:45;;;;;;;21.05;13.35;;;4.30;92.00;;;;;;5008145;28;20044;-58
2023/03/02 08:11:15;;;;;;;24.52;14.65;;;4.40;91.70;;;;;;5011150;28;20302;-58
2023/03/02 08:13:41;;;;;;;23.40;14.88;;;4.40;91.80;;;;;;4998598;28;20021;-58
2023/03/02 08:16:08;;;;;;;24.30;14.15;;;4.50;92.20;;;;;;5013811;28;20033;-58
2023/03/02 08:18:35;;;;;;;19.98;13.45;;;4.60;91.60;;;;;;4997369;28;20052;-58
2023/03/02 08:21:01;;;;;;;20.67;13.90;;;4.70;91.40;;;;;;5008452;28;20033;-58
2023/03/02 08:23:27;;;;;;;26.30;13.55;;;4.80;90.80;;;;;;5004763;28;20526;-58
2023/03/02 08:25:53;;;;;;;22.15;13.07;;;4.90;90.60;;;;;;4998973;28;20109;-58
2023/03/02 08:28:20;;;;;;;21.00;13.57;;;4.90;90.50;;;;;;5015709;28;20100;-58
2023/03/02 08:30:57;;;;;;;22.08;14.13;;;5.00;90.30;;;;;;4999288;28;20038;-58
2023/03/02 08:33:23;;;;;;;24.65;13.55;;;5.10;90.10;;;;;;5015881;28;20038;-58
2023/03/02 08:36:02;;;;;;;21.60;13.18;;;5.10;90.00;;;;;;5005136;28;20104;-58
2023/03/02 08:38:28;;;;;;;23.40;13.30;;;5.20;89.70;;;;;;5003993;28;20036;-58
2023/03/02 08:40:54;;;;;;;23.13;14.25;;;5.30;89.60;;;;;;5012631;28;20029;-58
2023/03/02 08:43:22;;;;;;;19.30;12.50;;;5.30;88.70;;;;;;5000497;28;20026;-58
2023/03/02 08:45:52;;;;;;;23.95;13.70;;;5.40;89.00;;;;;;5014645;28;20033;-58
2023/03/02 08:48:20;;;;;;;21.97;13.77;;;5.50;88.80;;;;;;5002600;28;20395;-58
2023/03/02 08:50:57;;;;;;;21.58;12.20;;;5.50;88.00;;;;;;5008121;28;20265;-58
2023/03/02 08:53:23;;;;;;;22.23;12.77;;;5.60;87.50;;;;;;5008392;28;20038;-58
2023/03/02 08:55:49;;;;;;;19.55;12.85;;;5.70;88.40;;;;;;4998878;28;20398;-57
2023/03/02 08:58:15;;;;;;;20.88;13.13;;;5.80;86.60;;;;;;5019071;28;20052;-56
2023/03/02 09:00:41;;;;;;;21.35;12.82;;;5.90;86.70;;;;;;4997141;28;20034;-59
2023/03/02 09:03:06;;;;;;;23.23;12.60;;;5.90;86.60;;;;;;5008734;28;20079;-60
2023/03/02 09:05:32;;;;;;;20.50;12.35;;;6.10;85.50;;;;;;5008319;28;20036;-58
2023/03/02 09:07:58;;;;;;;16.80;10.27;;;6.10;85.90;;;;;;4997716;28;20028;-58
2023/03/02 09:10:23;;;;;;;22.63;13.48;;;6.20;85.30;;;;;;5019431;28;20100;-56
2023/03/02 09:12:49;;;;;;;16.90;10.82;;;6.30;84.90;;;;;;5013606;28;20470;-58
2023/03/02 09:15:15;;;;;;;29.83;13.18;;;6.30;84.70;;;;;;5018353;28;20029;-56
2023/03/02 09:17:40;;;;;;;20.00;11.43;;;6.40;84.90;;;;;;5018179;28;20041;-57
2023/03/02 09:20:07;;;;;;;25.65;13.45;;;6.60;84.00;;;;;;5016043;28;20030;-58
2023/03/02 09:22:34;;;;;;;19.05;11.30;;;6.80;83.80;;;;;;5009396;28;20060;-59
2023/03/02 09:25:01;;;;;;;15.52;12.13;;;7.30;82.60;;;;;;5017859;28;20030;-58
2023/03/02 09:27:27;;;;;;;16.05;11.40;;;8.20;80.60;;;;;;5016495;28;20038;-58
2023/03/02 09:29:52;;;;;;;18.23;12.20;;;9.50;78.30;;;;;;5019915;28;20037;-59
2023/03/02 09:32:18;;;;;;;19.75;11.75;;;11.10;70.90;;;;;;5020468;28;20037;-59
2023/03/02 09:34:43;;;;;;;16.23;11.23;;;12.30;66.00;;;;;;5011270;28;20037;-58
2023/03/02 09:37:09;;;;;;;14.50;10.52;;;13.10;62.70;;;;;;5011325;28;20565;-59
2023/03/02 09:39:36;;;;;;;20.40;10.93;;;13.90;61.20;;;;;;5014016;28;20061;-58
2023/03/02 09:42:20;;;;;;;12.98;9.40;;;14.80;58.20;;;;;;5010245;28;20064;-59
2023/03/02 09:44:52;;;;;;;12.90;9.27;;;15.70;54.50;;;;;;5012731;28;20076;-59
2023/03/02 09:47:24;;;;;;;11.07;9.93;;;16.40;53.40;;;;;;5015316;28;20036;-58
2023/03/02 09:50:17;;;;;;;16.83;10.88;;;16.50;51.90;;;;;;5020006;28;20030;-59
2023/03/02 09:53:01;;;;;;;14.10;9.75;;;16.70;51.40;;;;;;5015717;28;20025;-59
2023/03/02 09:55:33;;;;;;;12.27;9.82;;;17.20;51.40;;;;;;5013216;28;20121;-60
2023/03/02 09:58:01;;;;;;;15.55;9.88;;;17.50;49.50;;;;;;5016598;28;20072;-59
2023/03/02 10:00:35;;;;;;;10.70;9.60;;;17.40;48.10;;;;;;5011191;28;20429;-60
2023/03/02 10:03:17;;;;;;;13.75;9.98;;;17.20;50.60;;;;;;5003187;28;20037;-60
2023/03/02 10:05:53;;;;;;;13.35;10.57;;;17.00;48.20;;;;;;5008201;28;20741;-60
2023/03/02 10:08:25;;;;;;;30.35;10.88;;;16.60;50.80;;;;;;5007503;28;20069;-60
2023/03/02 10:11:19;;;;;;;13.90;10.52;;;16.50;50.40;;;;;;4999465;28;20636;-59
2023/03/02 10:13:53;;;;;;;14.93;10.40;;;16.30;51.10;;;;;;5011775;28;20050;-59
2023/03/02 10:16:44;;;;;;;12.65;9.73;;;16.50;50.20;;;;;;4996737;28;20026;-59
2023/03/02 10:19:32;;;;;;;;;;;16.30;51.40;;;;;;4995671;28;20042;-59
2023/03/02 10:22:10;;;;;;;14.13;9.48;;;16.40;51.00;;;;;;4992721;28;19921;-59
2023/03/02 10:25:01;;;;;;;18.77;9.70;;;16.40;51.70;;;;;;5012554;28;20050;-58
2023/03/02 10:27:37;;;;;;;12.55;8.43;;;16.50;50.70;;;;;;4999306;28;20033;-59
2023/03/02 10:30:07;;;;;;;14.85;9.02;;;16.50;51.30;;;;;;5011246;28;20383;-60
2023/03/02 10:32:38;;;;;;;14.40;8.80;;;16.90;50.70;;;;;;5005237;28;20033;-59
2023/03/02 10:35:15;;;;;;;12.30;9.60;;;17.00;50.20;;;;;;4999459;28;20034;-60
2023/03/02 10:37:41;;;;;;;14.63;8.23;;;17.10;51.70;;;;;;5012255;28;20097;-60
2023/03/02 10:40:31;;;;;;;11.45;8.82;;;17.20;51.90;;;;;;4997094;28;20063;-59
2023/03/02 10:42:58;;;;;;;13.20;8.40;;;17.50;49.70;;;;;;4995062;28;20588;-59
2023/03/02 10:45:31;;;;;;;11.90;8.13;;;17.80;50.90;;;;;;5011152;28;20113;-61
2023/03/02 10:48:05;;;;;;;15.25;9.55;;;18.20;49.20;;;;;;4999360;28;20034;-61
2023/03/02 10:50:31;;;;;;;14.52;7.78;;;18.20;47.90;;;;;;5004043;28;20036;-60
2023/03/02 10:52:58;;;;;;;13.50;7.55;;;17.80;48.30;;;;;;5011991;28;20049;-59
2023/03/02 10:55:24;;;;;;;10.93;6.38;;;17.50;50.00;;;;;;4995632;28;20036;-60
2023/03/02 10:58:18;;;;;;;11.25;7.35;;;17.60;51.40;;;;;;4996557;28;20035;-60
2023/03/02 11:00:56;;;;;;;13.50;7.78;;;17.70;48.30;;;;;;5013747;28;20026;-58
2023/03/02 11:03:22;;;;;;;12.75;7.72;;;17.60;48.60;;;;;;5000464;28;20041;-59
2023/03/02 11:05:48;;;;;;;13.13;7.43;;;17.20;50.10;;;;;;5000719;28;20617;-59
2023/03/02 11:08:19;;;;;;;12.40;6.63;;;17.00;51.90;;;;;;5010334;28;20105;-59
2023/03/02 11:10:59;;;;;;;15.10;6.03;;;16.90;52.30;;;;;;4996436;28;20552;-59
2023/03/02 11:13:29;;;;;;;9.32;6.70;;;16.80;53.30;;;;;;5015231;28;20087;-58
2023/03/02 11:15:59;;;;;;;7.82;5.82;;;16.60;53.10;;;;;;4994142;28;20491;-60
2023/03/02 11:18:40;;;;;;;14.38;6.15;;;16.70;54.50;;;;;;5010749;28;20506;-58
2023/03/02 11:21:29;;;;;;;10.90;6.43;;;16.60;53.00;;;;;;5002263;28;20022;-59
2023/03/02 11:23:59;;;;;;;9.13;5.82;;;16.60;52.50;;;;;;5008940;28;20839;-60
2023/03/02 11:26:38;;;;;;;14.00;5.88;;;16.40;52.90;;;;;;5006881;28;20061;-57
2023/03/02 11:29:13;;;;;;;10.77;6.07;;;16.20;54.00;;;;;;5003349;28;20049;-59
2023/03/02 11:31:42;;;;;;;11.65;6.07;;;15.90;54.10;;;;;;5016193;28;20085;-60
2023/03/02 11:34:15;;;;;;;14.85;7.68;;;15.80;54.60;;;;;;5000391;28;20030;-59
2023/03/02 11:37:10;;;;;;;11.15;6.03;;;15.70;55.70;;;;;;5017350;28;20781;-60
2023/03/02 11:40:04;;;;;;;15.40;7.57;;;15.50;56.40;;;;;;5001615;28;20026;-59
2023/03/02 11:42:43;;;;;;;16.25;6.60;;;15.30;56.90;;;;;;4969558;28;20480;-59
2023/03/02 11:45:26;;;;;;;11.75;6.63;;;15.30;57.50;;;;;;5015388;28;20030;-58
2023/03/02 11:48:16;;;;;;;18.77;7.90;;;15.10;56.70;;;;;;5007229;28;20682;-61
2023/03/02 11:50:52;;;;;;;13.93;8.20;;;15.00;58.60;;;;;;5005523;28;20049;-59
2023/03/02 11:53:19;;;;;;;14.48;7.35;;;14.90;57.80;;;;;;5008751;28;20046;-58
2023/03/02 11:55:48;;;;;;;12.35;7.35;;;14.90;58.00;;;;;;5002391;28;20026;-58
2023/03/02 11:58:26;;;;;;;12.13;7.18;;;14.70;57.20;;;;;;5019451;28;20109;-59
2023/03/02 12:00:53;;;;;;;11.35;6.40;;;14.50;58.30;;;;;;5017679;28;20143;-58
2023/03/02 12:03:36;;;;;;;15.23;6.57;;;14.10;59.00;;;;;;5019038;28;20394;-59
2023/03/02 12:06:23;;;;;;;14.95;6.43;;;14.00;59.60;;;;;;5018363;28;20037;-58
2023/03/02 12:08:53;;;;;;;15.27;5.75;;;14.00;60.00;;;;;;5005286;28;20034;-59
2023/03/02 12:11:18;;;;;;;10.73;5.88;;;14.10;60.10;;;;;;5013968;28;20148;-59
2023/03/02 12:13:53;;;;;;;15.18;6.97;;;14.10;59.20;;;;;;5018204;28;20184;-59
2023/03/02 12:16:37;;;;;;;18.92;7.22;;;14.10;60.10;;;;;;5015597;28;20025;-59
2023/03/02 12:19:16;;;;;;;12.80;6.97;;;14.10;60.10;;;;;;5000420;28;20088;-60
2023/03/02 12:21:55;;;;;;;22.08;7.90;;;14.20;60.00;;;;;;5016707;28;20049;-58
2023/03/02 12:24:26;;;;;;;14.90;7.18;;;14.20;58.20;;;;;;4998445;28;20085;-59
2023/03/02 12:27:26;;;;;;;10.77;7.25;;;14.10;59.40;;;;;;5013131;28;20105;-59
2023/03/02 12:30:10;;;;;;;9.40;7.00;;;14.10;59.30;;;;;;5007354;28;20042;-58
2023/03/02 12:32:36;;;;;;;10.60;6.68;;;13.80;58.80;;;;;;5006382;28;20089;-59
2023/03/02 12:35:12;;;;;;;17.25;6.88;;;13.70;59.50;;;;;;5013856;28;20065;-59
2023/03/02 12:37:52;;;;;;;11.30;6.28;;;13.50;59.80;;;;;;4998308;28;20489;-59
2023/03/02 12:40:32;;;;;;;24.60;8.02;;;13.40;60.30;;;;;;5019348;28;20047;-59
2023/03/02 12:43:26;;;;;;;11.33;7.07;;;13.50;61.80;;;;;;5014760;28;20091;-59
2023/03/02 12:46:25;;;;;;;11.38;7.45;;;13.50;60.30;;;;;;5000546;28;20050;-58
2023/03/02 12:49:03;;;;;;;12.25;7.10;;;13.30;61.50;;;;;;4995577;28;20042;-58
2023/03/02 12:51:43;;;;;;;19.98;7.75;;;13.10;61.30;;;;;;5013655;28;20744;-59